sensor_id;sensor_type;location;lat;lon;timestamp;P1;durP1;ratioP1;P2;durP2;ratioP2
73456;SDS011;61691;53.072;6.582;2023-03-31T00:02:03;28.88;;;5.35;;
73456;SDS011;61691;53.072;6.582;2023-03-31T00:04:39;27.08;;;6.22;;
73456;SDS011;61691;53.072;6.582;2023-03-31T00:07:12;24.92;;;5.65;;
73456;SDS011;61691;53.072;6.582;2023-03-31T00:09:40;29.02;;;6.00;;
73456;SDS011;61691;53.072;6.582;2023-03-31T00:12:12;28.77;;;7.07;;
73456;SDS011;61691;53.072;6.582;2023-03-31T00:14:40;33.67;;;6.43;;
73456;SDS011;61691;53.072;6.582;2023-03-31T00:17:08;29.35;;;5.85;;
73456;SDS011;61691;53.072;6.582;2023-03-31T00:19:36;28.95;;;6.45;;
73456;SDS011;61691;53.072;6.582;2023-03-31T00:22:03;29.52;;;5.78;;
73456;SDS011;61691;53.072;6.582;2023-03-31T00:24:31;26.73;;;5.88;;
73456;SDS011;61691;53.072;6.582;2023-03-31T00:26:58;29.65;;;5.10;;
73456;SDS011;61691;53.072;6.582;2023-03-31T00:29:27;28.27;;;5.68;;
73456;SDS011;61691;53.072;6.582;2023-03-31T00:31:54;34.40;;;6.38;;
73456;SDS011;61691;53.072;6.582;2023-03-31T00:34:21;30.15;;;5.40;;
73456;SDS011;61691;53.072;6.582;2023-03-31T00:36:48;29.33;;;5.75;;
73456;SDS011;61691;53.072;6.582;2023-03-31T00:39:15;31.13;;;5.22;;
73456;SDS011;61691;53.072;6.582;2023-03-31T00:41:44;34.60;;;6.15;;
73456;SDS011;61691;53.072;6.582;2023-03-31T00:44:18;31.70;;;5.75;;
73456;SDS011;61691;53.072;6.582;2023-03-31T00:47:03;28.73;;;5.40;;
73456;SDS011;61691;53.072;6.582;2023-03-31T00:49:36;28.00;;;5.13;;
73456;SDS011;61691;53.072;6.582;2023-03-31T00:55:15;28.55;;;5.57;;
73456;SDS011;61691;53.072;6.582;2023-03-31T00:57:44;29.75;;;6.70;;
73456;SDS011;61691;53.072;6.582;2023-03-31T01:00:13;26.75;;;5.28;;
73456;SDS011;61691;53.072;6.582;2023-03-31T01:02:41;27.85;;;5.00;;
73456;SDS011;61691;53.072;6.582;2023-03-31T01:05:17;32.33;;;5.65;;
73456;SDS011;61691;53.072;6.582;2023-03-31T01:07:47;32.55;;;6.10;;
73456;SDS011;61691;53.072;6.582;2023-03-31T01:10:17;27.83;;;4.78;;
73456;SDS011;61691;53.072;6.582;2023-03-31T01:12:51;30.33;;;5.70;;
73456;SDS011;61691;53.072;6.582;2023-03-31T01:15:20;26.38;;;5.10;;
73456;SDS011;61691;53.072;6.582;2023-03-31T01:17:47;29.90;;;4.78;;
73456;SDS011;61691;53.072;6.582;2023-03-31T01:20:19;28.40;;;6.22;;
73456;SDS011;61691;53.072;6.582;2023-03-31T01:31:09;24.70;;;4.20;;
73456;SDS011;61691;53.072;6.582;2023-03-31T01:47:44;23.50;;;3.92;;
73456;SDS011;61691;53.072;6.582;2023-03-31T01:50:37;28.60;;;5.35;;
73456;SDS011;61691;53.072;6.582;2023-03-31T01:53:22;28.95;;;4.50;;
73456;SDS011;61691;53.072;6.582;2023-03-31T01:58:28;28.08;;;5.55;;
73456;SDS011;61691;53.072;6.582;2023-03-31T02:01:02;28.10;;;4.70;;
73456;SDS011;61691;53.072;6.582;2023-03-31T02:03:45;27.88;;;4.90;;
73456;SDS011;61691;53.072;6.582;2023-03-31T02:06:20;26.67;;;4.93;;
73456;SDS011;61691;53.072;6.582;2023-03-31T02:08:52;26.25;;;4.28;;
73456;SDS011;61691;53.072;6.582;2023-03-31T02:11:22;26.20;;;4.55;;
73456;SDS011;61691;53.072;6.582;2023-03-31T02:13:52;29.67;;;5.07;;
73456;SDS011;61691;53.072;6.582;2023-03-31T02:16:22;25.52;;;4.88;;
73456;SDS011;61691;53.072;6.582;2023-03-31T02:18:53;23.50;;;4.55;;
73456;SDS011;61691;53.072;6.582;2023-03-31T02:21:28;24.10;;;4.35;;
73456;SDS011;61691;53.072;6.582;2023-03-31T02:23:59;26.80;;;5.28;;
73456;SDS011;61691;53.072;6.582;2023-03-31T02:26:30;27.73;;;4.50;;
73456;SDS011;61691;53.072;6.582;2023-03-31T02:29:01;22.17;;;3.92;;
73456;SDS011;61691;53.072;6.582;2023-03-31T02:34:45;27.02;;;5.35;;
73456;SDS011;61691;53.072;6.582;2023-03-31T02:37:12;26.00;;;5.07;;
73456;SDS011;61691;53.072;6.582;2023-03-31T02:39:40;27.10;;;5.15;;
73456;SDS011;61691;53.072;6.582;2023-03-31T02:42:10;28.02;;;4.50;;
73456;SDS011;61691;53.072;6.582;2023-03-31T02:44:37;23.70;;;4.35;;
73456;SDS011;61691;53.072;6.582;2023-03-31T02:47:06;27.25;;;4.32;;
73456;SDS011;61691;53.072;6.582;2023-03-31T02:49:37;26.48;;;4.68;;
73456;SDS011;61691;53.072;6.582;2023-03-31T03:00:39;22.70;;;3.70;;
73456;SDS011;61691;53.072;6.582;2023-03-31T03:06:03;26.48;;;4.22;;
73456;SDS011;61691;53.072;6.582;2023-03-31T03:11:45;22.02;;;3.97;;
73456;SDS011;61691;53.072;6.582;2023-03-31T03:14:26;24.05;;;3.95;;
73456;SDS011;61691;53.072;6.582;2023-03-31T03:17:47;23.83;;;3.55;;
73456;SDS011;61691;53.072;6.582;2023-03-31T03:19:55;24.02;;;3.90;;
73456;SDS011;61691;53.072;6.582;2023-03-31T03:22:25;19.58;;;3.70;;
73456;SDS011;61691;53.072;6.582;2023-03-31T03:24:52;25.17;;;4.22;;
73456;SDS011;61691;53.072;6.582;2023-03-31T03:27:19;22.50;;;4.63;;
73456;SDS011;61691;53.072;6.582;2023-03-31T03:29:48;25.38;;;5.00;;
73456;SDS011;61691;53.072;6.582;2023-03-31T03:32:14;22.73;;;3.88;;
73456;SDS011;61691;53.072;6.582;2023-03-31T03:34:41;21.10;;;4.20;;
73456;SDS011;61691;53.072;6.582;2023-03-31T03:37:08;23.20;;;4.47;;
73456;SDS011;61691;53.072;6.582;2023-03-31T03:39:35;20.05;;;4.40;;
73456;SDS011;61691;53.072;6.582;2023-03-31T03:42:02;23.23;;;4.70;;
73456;SDS011;61691;53.072;6.582;2023-03-31T03:44:29;19.35;;;4.13;;
73456;SDS011;61691;53.072;6.582;2023-03-31T03:46:56;22.60;;;4.57;;
73456;SDS011;61691;53.072;6.582;2023-03-31T03:49:23;21.35;;;4.35;;
73456;SDS011;61691;53.072;6.582;2023-03-31T03:51:49;22.73;;;4.28;;
73456;SDS011;61691;53.072;6.582;2023-03-31T03:54:16;23.42;;;4.32;;
73456;SDS011;61691;53.072;6.582;2023-03-31T03:56:43;23.20;;;4.60;;
73456;SDS011;61691;53.072;6.582;2023-03-31T03:59:10;22.83;;;4.70;;
73456;SDS011;61691;53.072;6.582;2023-03-31T04:01:37;19.67;;;4.15;;
73456;SDS011;61691;53.072;6.582;2023-03-31T04:04:04;25.00;;;4.32;;
73456;SDS011;61691;53.072;6.582;2023-03-31T04:06:31;21.30;;;4.47;;
73456;SDS011;61691;53.072;6.582;2023-03-31T04:08:57;19.80;;;5.10;;
73456;SDS011;61691;53.072;6.582;2023-03-31T04:11:24;20.50;;;4.70;;
73456;SDS011;61691;53.072;6.582;2023-03-31T04:13:51;22.35;;;4.50;;
73456;SDS011;61691;53.072;6.582;2023-03-31T04:16:18;21.05;;;4.93;;
73456;SDS011;61691;53.072;6.582;2023-03-31T04:18:45;18.98;;;5.10;;
73456;SDS011;61691;53.072;6.582;2023-03-31T04:21:12;19.67;;;5.00;;
73456;SDS011;61691;53.072;6.582;2023-03-31T04:23:40;24.48;;;5.65;;
73456;SDS011;61691;53.072;6.582;2023-03-31T04:26:16;18.58;;;5.18;;
73456;SDS011;61691;53.072;6.582;2023-03-31T04:28:44;20.33;;;5.45;;
73456;SDS011;61691;53.072;6.582;2023-03-31T04:31:16;21.85;;;5.47;;
73456;SDS011;61691;53.072;6.582;2023-03-31T04:33:52;20.40;;;5.00;;
73456;SDS011;61691;53.072;6.582;2023-03-31T04:36:20;21.45;;;5.85;;
73456;SDS011;61691;53.072;6.582;2023-03-31T04:38:47;21.52;;;6.18;;
73456;SDS011;61691;53.072;6.582;2023-03-31T04:41:22;23.38;;;6.25;;
73456;SDS011;61691;53.072;6.582;2023-03-31T04:43:49;21.17;;;5.75;;
73456;SDS011;61691;53.072;6.582;2023-03-31T04:46:16;23.23;;;6.18;;
73456;SDS011;61691;53.072;6.582;2023-03-31T04:48:43;20.25;;;5.80;;
73456;SDS011;61691;53.072;6.582;2023-03-31T04:51:10;22.92;;;5.20;;
73456;SDS011;61691;53.072;6.582;2023-03-31T04:53:40;20.25;;;5.45;;
73456;SDS011;61691;53.072;6.582;2023-03-31T04:56:07;22.05;;;6.18;;
73456;SDS011;61691;53.072;6.582;2023-03-31T04:58:34;21.65;;;5.30;;
73456;SDS011;61691;53.072;6.582;2023-03-31T05:01:01;20.45;;;5.28;;
73456;SDS011;61691;53.072;6.582;2023-03-31T05:03:27;21.75;;;6.38;;
73456;SDS011;61691;53.072;6.582;2023-03-31T05:05:54;23.25;;;5.55;;
73456;SDS011;61691;53.072;6.582;2023-03-31T05:08:21;22.52;;;5.60;;
73456;SDS011;61691;53.072;6.582;2023-03-31T05:10:48;21.65;;;5.55;;
73456;SDS011;61691;53.072;6.582;2023-03-31T05:13:14;21.13;;;5.57;;
73456;SDS011;61691;53.072;6.582;2023-03-31T05:15:41;19.67;;;5.63;;
73456;SDS011;61691;53.072;6.582;2023-03-31T05:18:10;19.25;;;4.47;;
73456;SDS011;61691;53.072;6.582;2023-03-31T05:20:37;24.83;;;5.30;;
73456;SDS011;61691;53.072;6.582;2023-03-31T05:23:04;20.33;;;5.60;;
73456;SDS011;61691;53.072;6.582;2023-03-31T05:25:32;19.30;;;4.68;;
73456;SDS011;61691;53.072;6.582;2023-03-31T05:27:59;20.45;;;4.70;;
73456;SDS011;61691;53.072;6.582;2023-03-31T05:30:26;23.08;;;4.70;;
73456;SDS011;61691;53.072;6.582;2023-03-31T05:32:54;19.88;;;4.88;;
73456;SDS011;61691;53.072;6.582;2023-03-31T05:35:22;20.25;;;4.93;;
73456;SDS011;61691;53.072;6.582;2023-03-31T05:37:48;19.85;;;4.22;;
73456;SDS011;61691;53.072;6.582;2023-03-31T05:40:16;19.65;;;4.05;;
73456;SDS011;61691;53.072;6.582;2023-03-31T05:42:43;19.08;;;4.32;;
73456;SDS011;61691;53.072;6.582;2023-03-31T05:45:09;19.60;;;4.15;;
73456;SDS011;61691;53.072;6.582;2023-03-31T05:47:37;17.85;;;3.90;;
73456;SDS011;61691;53.072;6.582;2023-03-31T05:50:04;28.60;;;4.88;;
73456;SDS011;61691;53.072;6.582;2023-03-31T05:52:34;19.23;;;3.90;;
73456;SDS011;61691;53.072;6.582;2023-03-31T05:55:02;17.85;;;4.00;;
73456;SDS011;61691;53.072;6.582;2023-03-31T05:57:29;24.08;;;4.45;;
73456;SDS011;61691;53.072;6.582;2023-03-31T05:59:57;20.50;;;4.10;;
73456;SDS011;61691;53.072;6.582;2023-03-31T06:02:23;19.25;;;3.97;;
73456;SDS011;61691;53.072;6.582;2023-03-31T06:04:51;18.58;;;4.03;;
73456;SDS011;61691;53.072;6.582;2023-03-31T06:07:17;19.58;;;4.30;;
73456;SDS011;61691;53.072;6.582;2023-03-31T06:09:44;20.35;;;4.75;;
73456;SDS011;61691;53.072;6.582;2023-03-31T06:12:11;20.30;;;4.97;;
73456;SDS011;61691;53.072;6.582;2023-03-31T06:14:38;19.90;;;4.63;;
73456;SDS011;61691;53.072;6.582;2023-03-31T06:17:05;17.83;;;4.50;;
73456;SDS011;61691;53.072;6.582;2023-03-31T06:19:32;19.85;;;4.78;;
73456;SDS011;61691;53.072;6.582;2023-03-31T06:21:59;17.75;;;3.95;;
73456;SDS011;61691;53.072;6.582;2023-03-31T06:24:26;17.73;;;4.18;;
73456;SDS011;61691;53.072;6.582;2023-03-31T06:26:53;16.45;;;3.72;;
73456;SDS011;61691;53.072;6.582;2023-03-31T06:29:20;18.67;;;3.70;;
73456;SDS011;61691;53.072;6.582;2023-03-31T06:31:47;18.15;;;4.20;;
73456;SDS011;61691;53.072;6.582;2023-03-31T06:34:14;19.48;;;3.80;;
73456;SDS011;61691;53.072;6.582;2023-03-31T06:36:40;16.75;;;3.83;;
73456;SDS011;61691;53.072;6.582;2023-03-31T06:39:07;16.52;;;3.63;;
73456;SDS011;61691;53.072;6.582;2023-03-31T06:41:34;18.08;;;3.92;;
73456;SDS011;61691;53.072;6.582;2023-03-31T06:44:01;17.48;;;3.90;;
73456;SDS011;61691;53.072;6.582;2023-03-31T06:46:27;20.05;;;4.10;;
73456;SDS011;61691;53.072;6.582;2023-03-31T06:48:54;17.23;;;4.20;;
73456;SDS011;61691;53.072;6.582;2023-03-31T06:51:21;17.33;;;4.35;;
73456;SDS011;61691;53.072;6.582;2023-03-31T06:53:48;16.15;;;3.70;;
73456;SDS011;61691;53.072;6.582;2023-03-31T06:56:15;16.23;;;3.65;;
73456;SDS011;61691;53.072;6.582;2023-03-31T06:58:41;18.92;;;4.43;;
73456;SDS011;61691;53.072;6.582;2023-03-31T07:01:08;19.52;;;4.18;;
73456;SDS011;61691;53.072;6.582;2023-03-31T07:03:37;15.98;;;3.50;;
73456;SDS011;61691;53.072;6.582;2023-03-31T07:06:04;16.13;;;3.63;;
73456;SDS011;61691;53.072;6.582;2023-03-31T07:08:31;15.68;;;3.50;;
73456;SDS011;61691;53.072;6.582;2023-03-31T07:10:58;17.30;;;3.03;;
73456;SDS011;61691;53.072;6.582;2023-03-31T07:13:26;17.13;;;3.53;;
73456;SDS011;61691;53.072;6.582;2023-03-31T07:15:54;14.95;;;3.38;;
73456;SDS011;61691;53.072;6.582;2023-03-31T07:18:21;15.30;;;3.40;;
73456;SDS011;61691;53.072;6.582;2023-03-31T07:20:51;15.65;;;3.33;;
73456;SDS011;61691;53.072;6.582;2023-03-31T07:23:18;17.52;;;3.40;;
73456;SDS011;61691;53.072;6.582;2023-03-31T07:25:46;15.80;;;3.00;;
73456;SDS011;61691;53.072;6.582;2023-03-31T07:28:14;15.52;;;3.60;;
73456;SDS011;61691;53.072;6.582;2023-03-31T07:30:41;16.73;;;3.80;;
73456;SDS011;61691;53.072;6.582;2023-03-31T07:33:08;15.60;;;3.75;;
73456;SDS011;61691;53.072;6.582;2023-03-31T07:35:38;14.65;;;3.30;;
73456;SDS011;61691;53.072;6.582;2023-03-31T07:38:10;19.98;;;4.00;;
73456;SDS011;61691;53.072;6.582;2023-03-31T07:40:38;17.83;;;4.30;;
73456;SDS011;61691;53.072;6.582;2023-03-31T07:43:06;17.90;;;3.88;;
73456;SDS011;61691;53.072;6.582;2023-03-31T07:45:33;14.43;;;3.25;;
73456;SDS011;61691;53.072;6.582;2023-03-31T07:48:00;15.25;;;3.05;;
73456;SDS011;61691;53.072;6.582;2023-03-31T07:50:27;14.95;;;3.17;;
73456;SDS011;61691;53.072;6.582;2023-03-31T07:52:54;15.63;;;2.70;;
73456;SDS011;61691;53.072;6.582;2023-03-31T07:55:21;14.43;;;2.50;;
73456;SDS011;61691;53.072;6.582;2023-03-31T07:57:49;14.65;;;2.33;;
73456;SDS011;61691;53.072;6.582;2023-03-31T08:00:17;15.15;;;2.72;;
73456;SDS011;61691;53.072;6.582;2023-03-31T08:02:44;14.48;;;2.53;;
73456;SDS011;61691;53.072;6.582;2023-03-31T08:05:12;14.40;;;2.38;;
73456;SDS011;61691;53.072;6.582;2023-03-31T08:07:42;16.45;;;2.88;;
73456;SDS011;61691;53.072;6.582;2023-03-31T08:10:12;15.45;;;2.85;;
73456;SDS011;61691;53.072;6.582;2023-03-31T08:12:43;16.40;;;3.35;;
73456;SDS011;61691;53.072;6.582;2023-03-31T08:15:10;14.23;;;2.95;;
73456;SDS011;61691;53.072;6.582;2023-03-31T08:17:36;13.20;;;2.78;;
73456;SDS011;61691;53.072;6.582;2023-03-31T08:20:04;17.60;;;3.58;;
73456;SDS011;61691;53.072;6.582;2023-03-31T08:22:35;15.77;;;2.88;;
73456;SDS011;61691;53.072;6.582;2023-03-31T08:25:03;16.02;;;3.17;;
73456;SDS011;61691;53.072;6.582;2023-03-31T08:27:32;13.88;;;3.00;;
73456;SDS011;61691;53.072;6.582;2023-03-31T08:30:02;16.80;;;3.83;;
73456;SDS011;61691;53.072;6.582;2023-03-31T08:32:30;16.52;;;3.42;;
73456;SDS011;61691;53.072;6.582;2023-03-31T08:34:58;15.35;;;3.20;;
73456;SDS011;61691;53.072;6.582;2023-03-31T08:37:25;18.27;;;3.65;;
73456;SDS011;61691;53.072;6.582;2023-03-31T08:39:54;18.48;;;3.55;;
73456;SDS011;61691;53.072;6.582;2023-03-31T08:42:28;22.90;;;4.38;;
73456;SDS011;61691;53.072;6.582;2023-03-31T08:45:10;15.15;;;3.38;;
73456;SDS011;61691;53.072;6.582;2023-03-31T08:47:46;15.27;;;3.40;;
73456;SDS011;61691;53.072;6.582;2023-03-31T08:50:20;17.35;;;3.47;;
73456;SDS011;61691;53.072;6.582;2023-03-31T08:52:56;21.40;;;3.80;;
73456;SDS011;61691;53.072;6.582;2023-03-31T09:06:42;16.65;;;3.70;;
73456;SDS011;61691;53.072;6.582;2023-03-31T09:12:00;16.83;;;3.40;;
73456;SDS011;61691;53.072;6.582;2023-03-31T09:17:30;16.38;;;3.08;;
73456;SDS011;61691;53.072;6.582;2023-03-31T09:20:12;17.98;;;3.55;;
73456;SDS011;61691;53.072;6.582;2023-03-31T09:22:46;19.25;;;3.42;;
73456;SDS011;61691;53.072;6.582;2023-03-31T09:25:25;18.48;;;3.63;;
73456;SDS011;61691;53.072;6.582;2023-03-31T09:27:54;15.40;;;3.38;;
73456;SDS011;61691;53.072;6.582;2023-03-31T09:30:24;16.40;;;3.80;;
73456;SDS011;61691;53.072;6.582;2023-03-31T09:32:57;15.93;;;3.38;;
73456;SDS011;61691;53.072;6.582;2023-03-31T09:35:28;17.08;;;3.80;;
73456;SDS011;61691;53.072;6.582;2023-03-31T09:37:59;17.38;;;3.65;;
73456;SDS011;61691;53.072;6.582;2023-03-31T09:40:26;18.42;;;4.18;;
73456;SDS011;61691;53.072;6.582;2023-03-31T09:42:58;16.17;;;3.50;;
73456;SDS011;61691;53.072;6.582;2023-03-31T09:45:27;19.02;;;3.95;;
73456;SDS011;61691;53.072;6.582;2023-03-31T09:47:56;14.13;;;3.03;;
73456;SDS011;61691;53.072;6.582;2023-03-31T09:50:26;16.02;;;3.40;;
73456;SDS011;61691;53.072;6.582;2023-03-31T09:52:56;15.60;;;3.40;;
73456;SDS011;61691;53.072;6.582;2023-03-31T09:55:36;16.50;;;3.08;;
73456;SDS011;61691;53.072;6.582;2023-03-31T09:58:13;17.40;;;3.42;;
73456;SDS011;61691;53.072;6.582;2023-03-31T10:00:42;17.63;;;3.25;;
73456;SDS011;61691;53.072;6.582;2023-03-31T10:03:23;12.60;;;3.03;;
73456;SDS011;61691;53.072;6.582;2023-03-31T10:05:51;13.88;;;3.00;;
73456;SDS011;61691;53.072;6.582;2023-03-31T10:11:12;16.30;;;3.22;;
73456;SDS011;61691;53.072;6.582;2023-03-31T10:13:43;20.15;;;3.08;;
73456;SDS011;61691;53.072;6.582;2023-03-31T10:16:26;14.25;;;2.72;;
73456;SDS011;61691;53.072;6.582;2023-03-31T10:24:43;14.40;;;2.58;;
73456;SDS011;61691;53.072;6.582;2023-03-31T10:27:24;11.38;;;2.33;;
73456;SDS011;61691;53.072;6.582;2023-03-31T10:29:55;13.18;;;2.35;;
73456;SDS011;61691;53.072;6.582;2023-03-31T10:32:27;15.25;;;3.20;;
73456;SDS011;61691;53.072;6.582;2023-03-31T10:34:58;14.40;;;2.85;;
73456;SDS011;61691;53.072;6.582;2023-03-31T10:37:33;11.25;;;2.30;;
73456;SDS011;61691;53.072;6.582;2023-03-31T10:40:03;10.85;;;2.42;;
73456;SDS011;61691;53.072;6.582;2023-03-31T10:42:39;11.18;;;2.30;;
73456;SDS011;61691;53.072;6.582;2023-03-31T10:48:32;13.45;;;2.72;;
73456;SDS011;61691;53.072;6.582;2023-03-31T10:51:03;14.93;;;2.40;;
73456;SDS011;61691;53.072;6.582;2023-03-31T10:53:40;12.80;;;2.67;;
73456;SDS011;61691;53.072;6.582;2023-03-31T11:04:27;11.77;;;2.40;;
73456;SDS011;61691;53.072;6.582;2023-03-31T11:12:51;16.25;;;2.97;;
73456;SDS011;61691;53.072;6.582;2023-03-31T11:15:46;12.95;;;2.33;;
73456;SDS011;61691;53.072;6.582;2023-03-31T11:18:43;13.38;;;2.35;;
73456;SDS011;61691;53.072;6.582;2023-03-31T11:26:56;13.38;;;2.50;;
73456;SDS011;61691;53.072;6.582;2023-03-31T11:35:09;15.07;;;2.78;;
73456;SDS011;61691;53.072;6.582;2023-03-31T11:45:33;16.13;;;2.92;;
73456;SDS011;61691;53.072;6.582;2023-03-31T11:48:06;13.82;;;3.10;;
73456;SDS011;61691;53.072;6.582;2023-03-31T11:50:42;12.35;;;2.20;;
73456;SDS011;61691;53.072;6.582;2023-03-31T11:53:16;14.23;;;2.55;;
73456;SDS011;61691;53.072;6.582;2023-03-31T11:55:52;14.65;;;2.58;;
73456;SDS011;61691;53.072;6.582;2023-03-31T11:58:55;12.65;;;2.72;;
73456;SDS011;61691;53.072;6.582;2023-03-31T12:07:03;15.43;;;2.80;;
73456;SDS011;61691;53.072;6.582;2023-03-31T12:10:02;15.43;;;2.83;;
73456;SDS011;61691;53.072;6.582;2023-03-31T12:12:54;14.77;;;2.35;;
73456;SDS011;61691;53.072;6.582;2023-03-31T12:15:32;14.93;;;2.95;;
73456;SDS011;61691;53.072;6.582;2023-03-31T12:18:21;16.05;;;2.60;;
73456;SDS011;61691;53.072;6.582;2023-03-31T12:20:54;15.70;;;2.65;;
73456;SDS011;61691;53.072;6.582;2023-03-31T12:23:26;16.60;;;2.95;;
73456;SDS011;61691;53.072;6.582;2023-03-31T12:28:41;14.02;;;2.60;;
73456;SDS011;61691;53.072;6.582;2023-03-31T12:31:14;16.90;;;3.38;;
73456;SDS011;61691;53.072;6.582;2023-03-31T12:33:47;15.75;;;2.90;;
73456;SDS011;61691;53.072;6.582;2023-03-31T12:47:48;18.63;;;4.10;;
73456;SDS011;61691;53.072;6.582;2023-03-31T12:50:44;17.65;;;3.17;;
73456;SDS011;61691;53.072;6.582;2023-03-31T12:53:31;15.45;;;3.10;;
73456;SDS011;61691;53.072;6.582;2023-03-31T12:56:15;15.25;;;3.20;;
73456;SDS011;61691;53.072;6.582;2023-03-31T12:58:43;13.73;;;2.92;;
73456;SDS011;61691;53.072;6.582;2023-03-31T13:06:53;16.52;;;3.85;;
73456;SDS011;61691;53.072;6.582;2023-03-31T13:12:12;17.60;;;3.33;;
73456;SDS011;61691;53.072;6.582;2023-03-31T13:14:44;17.45;;;3.10;;
73456;SDS011;61691;53.072;6.582;2023-03-31T13:19:53;16.52;;;3.13;;
73456;SDS011;61691;53.072;6.582;2023-03-31T13:22:31;19.27;;;3.30;;
73456;SDS011;61691;53.072;6.582;2023-03-31T13:27:55;16.52;;;3.47;;
73456;SDS011;61691;53.072;6.582;2023-03-31T13:33:07;16.85;;;3.25;;
73456;SDS011;61691;53.072;6.582;2023-03-31T13:40:55;18.00;;;3.22;;
73456;SDS011;61691;53.072;6.582;2023-03-31T13:49:38;18.00;;;3.40;;
73456;SDS011;61691;53.072;6.582;2023-03-31T13:53:08;14.40;;;2.58;;
73456;SDS011;61691;53.072;6.582;2023-03-31T14:04:43;16.23;;;2.53;;
73456;SDS011;61691;53.072;6.582;2023-03-31T14:07:30;13.57;;;2.63;;
73456;SDS011;61691;53.072;6.582;2023-03-31T14:10:02;15.02;;;2.38;;
73456;SDS011;61691;53.072;6.582;2023-03-31T14:12:36;16.25;;;3.00;;
73456;SDS011;61691;53.072;6.582;2023-03-31T14:15:04;19.05;;;3.30;;
73456;SDS011;61691;53.072;6.582;2023-03-31T14:38:51;13.02;;;2.50;;
73456;SDS011;61691;53.072;6.582;2023-03-31T14:41:18;11.48;;;2.42;;
73456;SDS011;61691;53.072;6.582;2023-03-31T14:43:56;14.13;;;2.38;;
73456;SDS011;61691;53.072;6.582;2023-03-31T14:46:26;15.05;;;2.10;;
73456;SDS011;61691;53.072;6.582;2023-03-31T14:48:57;12.65;;;2.15;;
73456;SDS011;61691;53.072;6.582;2023-03-31T14:51:25;13.50;;;1.92;;
73456;SDS011;61691;53.072;6.582;2023-03-31T14:53:58;11.30;;;1.80;;
73456;SDS011;61691;53.072;6.582;2023-03-31T14:56:30;8.98;;;1.80;;
73456;SDS011;61691;53.072;6.582;2023-03-31T14:59:01;10.10;;;1.88;;
73456;SDS011;61691;53.072;6.582;2023-03-31T15:01:30;11.88;;;2.42;;
73456;SDS011;61691;53.072;6.582;2023-03-31T15:04:08;14.25;;;2.45;;
73456;SDS011;61691;53.072;6.582;2023-03-31T15:06:39;14.85;;;2.30;;
73456;SDS011;61691;53.072;6.582;2023-03-31T15:09:08;11.85;;;2.10;;
73456;SDS011;61691;53.072;6.582;2023-03-31T15:11:45;11.02;;;1.77;;
73456;SDS011;61691;53.072;6.582;2023-03-31T15:14:13;12.48;;;2.75;;
73456;SDS011;61691;53.072;6.582;2023-03-31T15:16:43;10.55;;;1.92;;
73456;SDS011;61691;53.072;6.582;2023-03-31T15:21:43;9.95;;;1.70;;
73456;SDS011;61691;53.072;6.582;2023-03-31T15:24:11;11.55;;;1.95;;
73456;SDS011;61691;53.072;6.582;2023-03-31T15:26:40;10.45;;;2.08;;
73456;SDS011;61691;53.072;6.582;2023-03-31T15:29:16;9.77;;;2.00;;
73456;SDS011;61691;53.072;6.582;2023-03-31T15:31:44;9.38;;;2.08;;
73456;SDS011;61691;53.072;6.582;2023-03-31T15:34:24;16.42;;;2.70;;
73456;SDS011;61691;53.072;6.582;2023-03-31T15:36:54;12.00;;;2.35;;
73456;SDS011;61691;53.072;6.582;2023-03-31T15:39:23;12.27;;;2.28;;
73456;SDS011;61691;53.072;6.582;2023-03-31T15:41:52;12.88;;;2.22;;
73456;SDS011;61691;53.072;6.582;2023-03-31T15:47:06;15.35;;;2.42;;
73456;SDS011;61691;53.072;6.582;2023-03-31T15:50:02;17.13;;;2.88;;
73456;SDS011;61691;53.072;6.582;2023-03-31T15:52:36;14.88;;;2.70;;
73456;SDS011;61691;53.072;6.582;2023-03-31T15:57:51;15.05;;;2.25;;
73456;SDS011;61691;53.072;6.582;2023-03-31T16:03:13;15.23;;;2.78;;
73456;SDS011;61691;53.072;6.582;2023-03-31T16:05:48;13.82;;;2.15;;
73456;SDS011;61691;53.072;6.582;2023-03-31T16:08:41;15.25;;;2.80;;
73456;SDS011;61691;53.072;6.582;2023-03-31T16:11:14;15.15;;;2.92;;
73456;SDS011;61691;53.072;6.582;2023-03-31T16:13:49;16.25;;;3.35;;
73456;SDS011;61691;53.072;6.582;2023-03-31T16:16:19;21.73;;;6.95;;
73456;SDS011;61691;53.072;6.582;2023-03-31T16:18:49;20.25;;;6.45;;
73456;SDS011;61691;53.072;6.582;2023-03-31T16:21:20;14.93;;;3.10;;
73456;SDS011;61691;53.072;6.582;2023-03-31T16:23:54;14.52;;;3.22;;
73456;SDS011;61691;53.072;6.582;2023-03-31T16:26:24;16.40;;;3.95;;
73456;SDS011;61691;53.072;6.582;2023-03-31T16:28:53;17.58;;;3.60;;
73456;SDS011;61691;53.072;6.582;2023-03-31T16:31:26;17.17;;;3.53;;
73456;SDS011;61691;53.072;6.582;2023-03-31T16:33:55;17.23;;;3.63;;
73456;SDS011;61691;53.072;6.582;2023-03-31T16:36:22;17.45;;;3.05;;
73456;SDS011;61691;53.072;6.582;2023-03-31T16:38:52;14.07;;;2.95;;
73456;SDS011;61691;53.072;6.582;2023-03-31T16:41:20;14.70;;;2.95;;
73456;SDS011;61691;53.072;6.582;2023-03-31T16:43:48;13.52;;;2.80;;
73456;SDS011;61691;53.072;6.582;2023-03-31T16:46:17;15.73;;;2.90;;
73456;SDS011;61691;53.072;6.582;2023-03-31T16:48:44;15.02;;;2.83;;
73456;SDS011;61691;53.072;6.582;2023-03-31T16:51:11;13.48;;;2.47;;
73456;SDS011;61691;53.072;6.582;2023-03-31T16:53:38;16.50;;;2.95;;
73456;SDS011;61691;53.072;6.582;2023-03-31T16:56:06;15.05;;;2.92;;
73456;SDS011;61691;53.072;6.582;2023-03-31T16:58:33;14.00;;;2.65;;
73456;SDS011;61691;53.072;6.582;2023-03-31T17:01:02;16.08;;;2.83;;
73456;SDS011;61691;53.072;6.582;2023-03-31T17:03:29;17.70;;;3.95;;
73456;SDS011;61691;53.072;6.582;2023-03-31T17:05:56;15.32;;;3.17;;
73456;SDS011;61691;53.072;6.582;2023-03-31T17:08:25;18.98;;;3.10;;
73456;SDS011;61691;53.072;6.582;2023-03-31T17:10:54;20.35;;;3.63;;
73456;SDS011;61691;53.072;6.582;2023-03-31T17:13:25;17.55;;;3.50;;
73456;SDS011;61691;53.072;6.582;2023-03-31T17:15:52;17.30;;;3.35;;
73456;SDS011;61691;53.072;6.582;2023-03-31T17:18:33;16.02;;;3.53;;
73456;SDS011;61691;53.072;6.582;2023-03-31T17:21:02;17.42;;;3.85;;
73456;SDS011;61691;53.072;6.582;2023-03-31T17:23:30;15.00;;;3.15;;
73456;SDS011;61691;53.072;6.582;2023-03-31T17:25:58;16.77;;;3.08;;
73456;SDS011;61691;53.072;6.582;2023-03-31T17:28:25;16.88;;;3.08;;
73456;SDS011;61691;53.072;6.582;2023-03-31T17:30:52;14.20;;;2.55;;
73456;SDS011;61691;53.072;6.582;2023-03-31T17:33:19;12.68;;;2.40;;
73456;SDS011;61691;53.072;6.582;2023-03-31T17:35:47;12.88;;;2.60;;
73456;SDS011;61691;53.072;6.582;2023-03-31T17:38:14;16.75;;;2.90;;
73456;SDS011;61691;53.072;6.582;2023-03-31T17:40:41;18.38;;;3.10;;
73456;SDS011;61691;53.072;6.582;2023-03-31T17:43:08;15.68;;;3.13;;
73456;SDS011;61691;53.072;6.582;2023-03-31T17:45:35;17.45;;;2.80;;
73456;SDS011;61691;53.072;6.582;2023-03-31T17:48:02;15.48;;;3.22;;
73456;SDS011;61691;53.072;6.582;2023-03-31T17:50:31;17.85;;;2.90;;
73456;SDS011;61691;53.072;6.582;2023-03-31T17:52:58;14.95;;;2.45;;
73456;SDS011;61691;53.072;6.582;2023-03-31T17:55:24;13.35;;;2.90;;
73456;SDS011;61691;53.072;6.582;2023-03-31T17:57:52;15.65;;;3.00;;
73456;SDS011;61691;53.072;6.582;2023-03-31T18:00:19;14.63;;;3.20;;
73456;SDS011;61691;53.072;6.582;2023-03-31T18:02:46;15.18;;;2.88;;
73456;SDS011;61691;53.072;6.582;2023-03-31T18:05:12;17.55;;;3.03;;
73456;SDS011;61691;53.072;6.582;2023-03-31T18:10:10;15.88;;;2.88;;
73456;SDS011;61691;53.072;6.582;2023-03-31T18:12:37;15.10;;;3.70;;
73456;SDS011;61691;53.072;6.582;2023-03-31T18:15:04;15.60;;;3.42;;
73456;SDS011;61691;53.072;6.582;2023-03-31T18:17:32;16.58;;;3.47;;